createdAt,value
2023-03-10T00:00:53.467Z,0.00
2023-03-10T00:01:53.487Z,0.00
2023-03-10T00:02:53.452Z,0.00
2023-03-10T00:03:53.422Z,0.00
2023-03-10T00:04:53.514Z,0.00
2023-03-10T00:05:53.562Z,0.00
2023-03-10T00:06:53.465Z,0.00
2023-03-10T00:07:53.407Z,0.00
2023-03-10T00:08:53.420Z,0.00
2023-03-10T00:09:53.351Z,0.00
2023-03-10T00:10:53.350Z,0.00
2023-03-10T00:11:53.333Z,0.00
2023-03-10T00:12:53.348Z,0.00
2023-03-10T00:13:53.300Z,0.00
2023-03-10T00:14:53.286Z,0.00
2023-03-10T00:15:53.382Z,0.00
2023-03-10T00:16:53.297Z,0.00
2023-03-10T00:17:53.272Z,0.00
2023-03-10T00:18:53.308Z,0.00
2023-03-10T00:19:53.278Z,0.00
2023-03-10T00:20:53.266Z,0.00
2023-03-10T00:21:53.234Z,0.00
2023-03-10T00:22:53.237Z,0.00
2023-03-10T00:23:53.209Z,0.00
2023-03-10T00:24:53.218Z,0.00
2023-03-10T00:25:53.165Z,0.00
2023-03-10T00:26:53.152Z,0.00
2023-03-10T00:27:53.172Z,0.00
2023-03-10T00:28:53.183Z,0.00
2023-03-10T00:29:53.248Z,0.00
2023-03-10T00:30:53.121Z,0.00
2023-03-10T00:31:53.101Z,0.00
2023-03-10T00:32:53.192Z,0.00
2023-03-10T00:33:53.122Z,0.00
2023-03-10T00:34:53.108Z,0.00
2023-03-10T00:35:53.134Z,0.00
2023-03-10T00:36:53.102Z,0.00
2023-03-10T00:37:53.059Z,0.00
2023-03-10T00:38:53.155Z,0.00
2023-03-10T00:39:53.028Z,0.00
2023-03-10T00:41:01.634Z,0.00
2023-03-10T00:41:53.008Z,0.00
2023-03-10T00:42:52.980Z,0.00
2023-03-10T00:43:52.990Z,0.00
2023-03-10T00:44:53.027Z,0.00
2023-03-10T00:45:53.042Z,0.00
2023-03-10T00:46:52.984Z,0.00
2023-03-10T00:47:52.994Z,0.00
2023-03-10T00:48:52.922Z,0.00
2023-03-10T00:49:52.905Z,0.00
2023-03-10T00:50:52.930Z,0.00
2023-03-10T00:51:52.888Z,0.00
2023-03-10T00:52:52.884Z,0.00
2023-03-10T00:53:52.893Z,0.00
2023-03-10T00:54:52.893Z,0.00
2023-03-10T00:55:52.847Z,0.00
2023-03-10T00:56:52.852Z,0.00
2023-03-10T00:57:52.863Z,0.00
2023-03-10T00:58:52.827Z,0.00
2023-03-10T00:59:52.835Z,0.00
2023-03-10T01:00:52.830Z,0.00
2023-03-10T01:01:52.852Z,0.00
2023-03-10T01:02:52.757Z,0.00
2023-03-10T01:03:52.821Z,0.00
2023-03-10T01:04:52.792Z,0.00
2023-03-10T01:05:52.776Z,0.00
2023-03-10T01:06:52.756Z,0.00
2023-03-10T01:07:52.724Z,0.00
2023-03-10T01:08:52.739Z,0.00
2023-03-10T01:09:52.699Z,0.00
2023-03-10T01:10:52.693Z,0.00
2023-03-10T01:11:52.704Z,0.00
2023-03-10T01:12:52.717Z,0.00
2023-03-10T01:13:52.663Z,0.00
2023-03-10T01:14:52.630Z,0.00
2023-03-10T01:15:52.693Z,0.00
2023-03-10T01:16:52.632Z,0.00
2023-03-10T01:17:52.597Z,0.00
2023-03-10T01:18:52.594Z,0.00
2023-03-10T01:19:52.608Z,0.00
2023-03-10T01:20:52.606Z,0.00
2023-03-10T01:21:52.578Z,0.00
2023-03-10T01:22:52.546Z,0.00
2023-03-10T01:23:52.522Z,0.00
2023-03-10T01:24:52.541Z,0.00
2023-03-10T01:25:52.498Z,0.00
2023-03-10T01:26:52.512Z,0.00
2023-03-10T01:27:52.517Z,0.00
2023-03-10T01:28:52.560Z,0.00
2023-03-10T01:29:52.485Z,0.00
2023-03-10T01:30:52.480Z,0.00
2023-03-10T01:31:52.438Z,0.00
2023-03-10T01:32:52.508Z,0.00
2023-03-10T01:33:52.548Z,0.00
2023-03-10T01:34:52.411Z,0.00
2023-03-10T01:35:52.507Z,0.00
2023-03-10T01:36:52.377Z,0.00
2023-03-10T01:37:52.415Z,0.00
2023-03-10T01:38:52.369Z,0.00
2023-03-10T01:39:52.386Z,0.00
2023-03-10T01:40:52.339Z,0.00
2023-03-10T01:41:52.345Z,0.00
2023-03-10T01:42:52.311Z,0.00
2023-03-10T01:43:52.359Z,0.00
2023-03-10T01:44:52.325Z,0.00
2023-03-10T01:45:52.270Z,0.00
2023-03-10T01:46:52.350Z,0.00
2023-03-10T01:47:52.293Z,0.00
2023-03-10T01:48:52.250Z,0.00
2023-03-10T01:49:52.253Z,0.00
2023-03-10T01:50:52.247Z,0.00
2023-03-10T01:51:52.204Z,0.00
2023-03-10T01:52:52.220Z,0.00
2023-03-10T01:53:52.231Z,0.00
2023-03-10T01:54:52.219Z,0.00
2023-03-10T01:55:52.238Z,0.00
2023-03-10T01:56:52.143Z,0.00
2023-03-10T01:57:52.198Z,0.00
2023-03-10T01:58:52.160Z,0.00
2023-03-10T01:59:52.111Z,0.00
2023-03-10T02:00:52.182Z,0.00
2023-03-10T02:01:52.193Z,0.00
2023-03-10T02:02:52.138Z,0.00
2023-03-10T02:03:52.078Z,0.00
2023-03-10T02:04:52.080Z,0.00
2023-03-10T02:05:52.122Z,0.00
2023-03-10T02:06:52.074Z,0.00
2023-03-10T02:07:52.066Z,0.00
2023-03-10T02:08:52.025Z,0.00
2023-03-10T02:09:52.037Z,0.00
2023-03-10T02:10:52.088Z,0.00
2023-03-10T02:11:52.059Z,0.00
2023-03-10T02:12:51.997Z,0.00
2023-03-10T02:13:51.985Z,0.00
2023-03-10T02:14:51.959Z,0.00
2023-03-10T02:15:52.066Z,0.00
2023-03-10T02:16:52.238Z,0.00
2023-03-10T02:17:51.985Z,0.00
2023-03-10T02:18:51.903Z,0.00
2023-03-10T02:19:51.894Z,0.00
2023-03-10T02:20:51.895Z,0.00
2023-03-10T02:21:51.934Z,0.00
2023-03-10T02:22:51.913Z,0.00
2023-03-10T02:24:01.021Z,0.00
2023-03-10T02:24:52.905Z,0.00
2023-03-10T02:25:51.831Z,0.00
2023-03-10T02:26:51.847Z,0.00
2023-03-10T02:27:51.798Z,0.00
2023-03-10T02:28:51.862Z,0.00
2023-03-10T02:29:59.184Z,0.00
2023-03-10T02:30:52.830Z,0.00
2023-03-10T02:31:51.822Z,0.00
2023-03-10T02:32:51.841Z,0.00
2023-03-10T02:33:51.796Z,0.00
2023-03-10T02:34:51.758Z,0.00
2023-03-10T02:35:51.807Z,0.00
2023-03-10T02:36:51.751Z,0.00
2023-03-10T02:37:51.701Z,0.00
2023-03-10T02:38:51.721Z,0.00
2023-03-10T02:39:52.659Z,0.00
2023-03-10T02:40:51.687Z,0.00
2023-03-10T02:41:51.642Z,0.00
2023-03-10T02:42:51.772Z,0.00
2023-03-10T02:43:51.663Z,0.00
2023-03-10T02:44:51.608Z,0.00
2023-03-10T02:45:51.723Z,0.00
2023-03-10T02:46:51.584Z,0.00
2023-03-10T02:47:51.574Z,0.00
2023-03-10T02:48:51.623Z,0.00
2023-03-10T02:49:51.571Z,0.00
2023-03-10T02:50:51.579Z,0.00
2023-03-10T02:51:51.600Z,0.00
2023-03-10T02:52:51.518Z,0.00
2023-03-10T02:53:51.556Z,0.00
2023-03-10T02:54:51.509Z,0.00
2023-03-10T02:55:51.583Z,0.00
2023-03-10T02:56:51.489Z,0.00
2023-03-10T02:57:51.501Z,0.00
2023-03-10T02:58:51.518Z,0.00
2023-03-10T02:59:51.463Z,0.00
2023-03-10T03:00:51.533Z,0.00
2023-03-10T03:01:51.418Z,0.00
2023-03-10T03:02:51.470Z,0.00
2023-03-10T03:03:51.475Z,0.00
2023-03-10T03:04:51.384Z,0.00
2023-03-10T03:05:51.446Z,0.00
2023-03-10T03:06:51.409Z,0.00
2023-03-10T03:07:51.353Z,0.00
2023-03-10T03:08:51.391Z,0.00
2023-03-10T03:09:51.374Z,0.00
2023-03-10T03:10:51.326Z,0.00
2023-03-10T03:11:51.316Z,0.00
2023-03-10T03:12:51.422Z,0.00
2023-03-10T03:13:51.299Z,0.00
2023-03-10T03:14:51.319Z,0.00
2023-03-10T03:15:51.259Z,0.00
2023-03-10T03:16:51.354Z,0.00
2023-03-10T03:17:51.287Z,0.00
2023-03-10T03:18:51.273Z,0.00
2023-03-10T03:19:51.272Z,0.00
2023-03-10T03:20:51.228Z,0.00
2023-03-10T03:21:51.254Z,0.00
2023-03-10T03:22:51.233Z,0.00
2023-03-10T03:23:51.200Z,0.00
2023-03-10T03:24:51.210Z,0.00
2023-03-10T03:25:51.163Z,0.00
2023-03-10T03:26:51.194Z,0.00
2023-03-10T03:27:51.142Z,0.00
2023-03-10T03:28:51.120Z,0.00
2023-03-10T03:29:51.194Z,0.00
2023-03-10T03:30:51.193Z,0.00
2023-03-10T03:31:51.154Z,0.00
2023-03-10T03:32:51.206Z,0.00
2023-03-10T03:33:51.092Z,0.00
2023-03-10T03:34:51.074Z,0.00
2023-03-10T03:35:51.126Z,0.00
2023-03-10T03:36:51.069Z,0.00
2023-03-10T03:37:51.046Z,0.00
2023-03-10T03:38:51.009Z,0.00
2023-03-10T03:39:51.041Z,0.00
2023-03-10T03:40:51.003Z,0.00
2023-03-10T03:41:51.030Z,0.00
2023-03-10T03:42:51.012Z,0.00
2023-03-10T03:43:50.977Z,0.00
2023-03-10T03:44:50.935Z,0.00
2023-03-10T03:45:50.940Z,0.00
2023-03-10T03:46:50.993Z,0.00
2023-03-10T03:47:50.979Z,0.00
2023-03-10T03:48:50.908Z,0.00
2023-03-10T03:49:50.923Z,0.00
2023-03-10T03:50:50.882Z,0.00
2023-03-10T03:51:50.939Z,0.00
2023-03-10T03:52:50.842Z,0.00
2023-03-10T03:53:50.846Z,0.00
2023-03-10T03:54:50.857Z,0.00
2023-03-10T03:55:50.896Z,0.00
2023-03-10T03:56:50.810Z,0.00
2023-03-10T03:57:50.835Z,0.00
2023-03-10T03:58:50.825Z,0.00
2023-03-10T03:59:50.788Z,0.00
2023-03-10T04:00:51.847Z,0.00
2023-03-10T04:01:50.747Z,0.00
2023-03-10T04:02:50.868Z,0.00
2023-03-10T04:03:50.928Z,0.00
2023-03-10T04:04:50.754Z,0.00
2023-03-10T04:05:50.727Z,0.00
2023-03-10T04:06:50.733Z,0.00
2023-03-10T04:07:50.747Z,0.00
2023-03-10T04:08:50.689Z,0.00
2023-03-10T04:09:50.677Z,0.00
2023-03-10T04:10:50.725Z,0.00
2023-03-10T04:11:50.659Z,0.00
2023-03-10T04:12:50.622Z,0.00
2023-03-10T04:13:50.637Z,0.00
2023-03-10T04:14:50.639Z,0.00
2023-03-10T04:15:50.683Z,0.00
2023-03-10T04:16:50.585Z,0.00
2023-03-10T04:17:50.563Z,0.00
2023-03-10T04:18:50.580Z,0.00
2023-03-10T04:20:04.557Z,0.00
2023-03-10T04:20:51.608Z,0.00
2023-03-10T04:21:50.620Z,0.00
2023-03-10T04:22:50.525Z,0.00
2023-03-10T04:23:50.548Z,0.00
2023-03-10T04:24:50.540Z,0.00
2023-03-10T04:25:50.511Z,0.00
2023-03-10T04:26:50.564Z,0.00
2023-03-10T04:27:50.562Z,0.00
2023-03-10T04:28:50.524Z,0.00
2023-03-10T04:29:50.542Z,0.00
2023-03-10T04:30:50.562Z,0.00
2023-03-10T04:32:04.794Z,0.00
2023-03-10T04:32:51.500Z,0.00
2023-03-10T04:33:50.403Z,0.00
2023-03-10T04:34:50.479Z,0.00
2023-03-10T04:35:50.406Z,0.00
2023-03-10T04:36:50.380Z,0.00
2023-03-10T04:37:50.379Z,0.00
2023-03-10T04:38:50.349Z,0.00
2023-03-10T04:39:50.355Z,0.00
2023-03-10T04:40:50.398Z,0.00
2023-03-10T04:41:50.312Z,0.00
2023-03-10T04:42:50.368Z,0.00
2023-03-10T04:43:50.312Z,0.00
2023-03-10T04:44:50.277Z,0.00
2023-03-10T04:45:50.337Z,0.00
2023-03-10T04:46:50.382Z,0.00
2023-03-10T04:47:50.264Z,0.00
2023-03-10T04:48:50.220Z,0.00
2023-03-10T04:49:50.211Z,0.00
2023-03-10T04:50:50.282Z,0.00
2023-03-10T04:51:50.213Z,0.00
2023-03-10T04:52:50.217Z,0.00
2023-03-10T04:53:50.192Z,0.00
2023-03-10T04:54:50.195Z,0.00
2023-03-10T04:55:50.175Z,0.00
2023-03-10T04:56:50.156Z,0.00
2023-03-10T04:57:50.170Z,0.00
2023-03-10T04:58:50.130Z,0.00
2023-03-10T04:59:50.125Z,0.00
2023-03-10T05:01:02.444Z,0.00
2023-03-10T05:01:51.181Z,0.00
2023-03-10T05:02:50.107Z,0.00
2023-03-10T05:03:50.055Z,0.00
2023-03-10T05:04:50.206Z,0.00
2023-03-10T05:05:50.069Z,0.00
2023-03-10T05:06:50.057Z,0.00
2023-03-10T05:07:50.038Z,0.00
2023-03-10T05:08:50.007Z,0.00
2023-03-10T05:09:49.996Z,0.00
2023-03-10T05:10:50.047Z,0.00
2023-03-10T05:11:49.986Z,0.00
2023-03-10T05:12:50.019Z,0.00
2023-03-10T05:13:50.054Z,0.00
2023-03-10T05:14:49.925Z,0.00
2023-03-10T05:15:49.926Z,0.00
2023-03-10T05:16:49.907Z,0.00
2023-03-10T05:17:50.207Z,0.00
2023-03-10T05:18:49.916Z,0.00
2023-03-10T05:19:49.905Z,0.00
2023-03-10T05:20:49.906Z,0.00
2023-03-10T05:21:49.866Z,0.00
2023-03-10T05:22:49.881Z,0.00
2023-03-10T05:23:49.888Z,0.00
2023-03-10T05:24:49.825Z,0.00
2023-03-10T05:25:49.840Z,0.00
2023-03-10T05:26:49.846Z,0.00
2023-03-10T05:27:49.812Z,0.00
2023-03-10T05:28:49.790Z,0.00
2023-03-10T05:29:50.261Z,4.00
2023-03-10T05:30:49.770Z,4.00
2023-03-10T05:31:49.780Z,4.00
2023-03-10T05:32:49.867Z,0.00
2023-03-10T05:33:49.756Z,0.00
2023-03-10T05:34:50.210Z,4.00
2023-03-10T05:35:50.758Z,4.00
2023-03-10T05:36:49.762Z,4.00
2023-03-10T05:37:50.696Z,8.00
2023-03-10T05:38:49.789Z,4.00
2023-03-10T05:39:49.660Z,4.00
2023-03-10T05:40:50.662Z,4.00
2023-03-10T05:41:49.766Z,8.00
2023-03-10T05:42:49.653Z,8.00
2023-03-10T05:43:49.617Z,8.00
2023-03-10T05:44:49.596Z,12.00
2023-03-10T05:45:49.597Z,12.00
2023-03-10T05:46:49.726Z,12.00
2023-03-10T05:47:49.795Z,16.00
2023-03-10T05:48:49.600Z,12.00
2023-03-10T05:49:49.594Z,16.00
2023-03-10T05:50:49.525Z,12.00
2023-03-10T05:51:49.512Z,12.00
2023-03-10T05:52:49.522Z,16.00
2023-03-10T05:53:49.525Z,16.00
2023-03-10T05:54:49.547Z,12.00
2023-03-10T05:55:49.528Z,16.00
2023-03-10T05:56:49.457Z,16.00
2023-03-10T05:57:49.451Z,16.00
2023-03-10T05:58:49.451Z,20.00
2023-03-10T05:59:49.448Z,20.00
2023-03-10T06:00:49.431Z,24.00
2023-03-10T06:01:49.401Z,28.00
2023-03-10T06:02:49.517Z,28.00
2023-03-10T06:03:49.603Z,32.00
2023-03-10T06:04:49.397Z,40.00
2023-03-10T06:05:49.359Z,40.00
2023-03-10T06:06:49.363Z,36.00
2023-03-10T06:07:49.336Z,36.00
2023-03-10T06:08:49.379Z,40.00
2023-03-10T06:09:49.387Z,40.00
2023-03-10T06:10:49.315Z,44.00
2023-03-10T06:11:49.302Z,48.00
2023-03-10T06:12:49.289Z,48.00
2023-03-10T06:13:49.275Z,48.00
2023-03-10T06:14:49.321Z,52.00
2023-03-10T06:15:49.312Z,60.00
2023-03-10T06:16:49.351Z,68.00
2023-03-10T06:17:49.240Z,72.00
2023-03-10T06:18:49.274Z,72.00
2023-03-10T06:19:49.197Z,80.00
2023-03-10T06:20:49.200Z,100.00
2023-03-10T06:21:49.193Z,112.00
2023-03-10T06:22:49.213Z,144.00
2023-03-10T06:23:49.175Z,164.00
2023-03-10T06:24:49.182Z,180.00
2023-03-10T06:25:49.143Z,184.00
2023-03-10T06:26:49.204Z,188.00
2023-03-10T06:27:49.151Z,188.00
2023-03-10T06:28:49.152Z,196.00
2023-03-10T06:29:49.118Z,200.00
2023-03-10T06:30:49.086Z,208.00
2023-03-10T06:31:49.107Z,208.00
2023-03-10T06:32:49.133Z,204.00
2023-03-10T06:33:49.045Z,204.00
2023-03-10T06:34:49.095Z,208.00
2023-03-10T06:35:49.026Z,216.00
2023-03-10T06:36:49.007Z,220.00
2023-03-10T06:37:49.012Z,228.00
2023-03-10T06:38:49.021Z,240.00
2023-03-10T06:39:49.022Z,244.00
2023-03-10T06:40:48.984Z,248.00
2023-03-10T06:41:49.046Z,252.00
2023-03-10T06:42:48.969Z,264.00
2023-03-10T06:43:49.052Z,272.00
2023-03-10T06:44:49.392Z,284.00
2023-03-10T06:45:48.988Z,288.00
2023-03-10T06:46:48.929Z,296.00
2023-03-10T06:47:48.905Z,300.00
2023-03-10T06:48:48.885Z,308.00
2023-03-10T06:49:48.900Z,312.00
2023-03-10T06:50:48.959Z,312.00
2023-03-10T06:51:48.874Z,316.00
2023-03-10T06:52:48.874Z,324.00
2023-03-10T06:53:48.922Z,340.00
2023-03-10T06:54:48.822Z,340.00
2023-03-10T06:55:48.822Z,340.00
2023-03-10T06:56:48.791Z,348.00
2023-03-10T06:57:48.957Z,360.00
2023-03-10T06:58:48.837Z,376.00
2023-03-10T06:59:48.810Z,392.00
2023-03-10T07:00:48.796Z,412.00
2023-03-10T07:01:48.783Z,412.00
2023-03-10T07:02:48.768Z,420.00
2023-03-10T07:03:48.704Z,436.00
2023-03-10T07:04:48.841Z,448.00
2023-03-10T07:05:50.709Z,468.00
2023-03-10T07:06:48.696Z,500.00
2023-03-10T07:07:48.714Z,500.00
2023-03-10T07:08:48.668Z,512.00
2023-03-10T07:09:49.232Z,524.00
2023-03-10T07:10:50.105Z,568.00
2023-03-10T07:11:48.628Z,576.00
2023-03-10T07:12:48.782Z,576.00
2023-03-10T07:13:48.596Z,592.00
2023-03-10T07:14:48.629Z,628.00
2023-03-10T07:15:48.617Z,668.00
2023-03-10T07:16:48.654Z,692.00
2023-03-10T07:17:48.562Z,696.00
2023-03-10T07:18:48.573Z,700.00
2023-03-10T07:19:48.546Z,700.00
2023-03-10T07:20:48.511Z,700.00
2023-03-10T07:21:48.523Z,700.00
2023-03-10T07:22:48.497Z,708.00
2023-03-10T07:23:48.506Z,712.00
2023-03-10T07:24:48.478Z,724.00
2023-03-10T07:25:48.607Z,724.00
2023-03-10T07:26:48.446Z,720.00
2023-03-10T07:27:48.430Z,744.00
2023-03-10T07:28:48.440Z,752.00
2023-03-10T07:29:48.433Z,768.00
2023-03-10T07:30:48.511Z,772.00
2023-03-10T07:31:48.453Z,776.00
2023-03-10T07:32:48.469Z,768.00
2023-03-10T07:33:48.430Z,764.00
2023-03-10T07:34:48.376Z,752.00
2023-03-10T07:35:48.412Z,744.00
2023-03-10T07:36:48.331Z,736.00
2023-03-10T07:37:48.324Z,716.00
2023-03-10T07:38:48.337Z,700.00
2023-03-10T07:39:48.371Z,684.00
2023-03-10T07:40:48.309Z,660.00
2023-03-10T07:41:48.325Z,676.00
2023-03-10T07:42:48.259Z,736.00
2023-03-10T07:43:48.260Z,820.00
2023-03-10T07:44:48.327Z,840.00
2023-03-10T07:45:48.369Z,824.00
2023-03-10T07:46:48.236Z,804.00
2023-03-10T07:47:48.258Z,796.00
2023-03-10T07:48:48.326Z,748.00
2023-03-10T07:49:48.307Z,708.00
2023-03-10T07:50:48.243Z,664.00
2023-03-10T07:51:48.188Z,688.00
2023-03-10T07:52:48.188Z,784.00
2023-03-10T07:53:48.195Z,860.00
2023-03-10T07:54:48.125Z,816.00
2023-03-10T07:55:48.118Z,784.00
2023-03-10T07:56:50.942Z,828.00
2023-03-10T07:57:48.140Z,836.00
2023-03-10T07:58:48.089Z,796.00
2023-03-10T07:59:48.149Z,744.00
2023-03-10T08:00:48.072Z,724.00
2023-03-10T08:01:48.054Z,712.00
2023-03-10T08:02:48.111Z,756.00
2023-03-10T08:03:48.096Z,840.00
2023-03-10T08:04:48.120Z,892.00
2023-03-10T08:05:48.073Z,932.00
2023-03-10T08:06:48.046Z,956.00
2023-03-10T08:07:47.990Z,920.00
2023-03-10T08:08:47.998Z,948.00
2023-03-10T08:09:48.018Z,980.00
2023-03-10T08:10:47.948Z,956.00
2023-03-10T08:11:48.014Z,956.00
2023-03-10T08:12:47.924Z,956.00
2023-03-10T08:13:48.022Z,976.00
2023-03-10T08:14:47.940Z,952.00
2023-03-10T08:15:47.963Z,932.00
2023-03-10T08:16:47.941Z,952.00
2023-03-10T08:17:47.910Z,1008.00
2023-03-10T08:18:47.913Z,1028.00
2023-03-10T08:19:47.872Z,1000.00
2023-03-10T08:20:47.865Z,960.00
2023-03-10T08:21:47.837Z,940.00
2023-03-10T08:22:47.807Z,956.00
2023-03-10T08:23:47.823Z,992.00
2023-03-10T08:24:47.831Z,1040.00
2023-03-10T08:25:48.026Z,1028.00
2023-03-10T08:26:47.762Z,1004.00
2023-03-10T08:27:47.763Z,1016.00
2023-03-10T08:28:47.830Z,976.00
2023-03-10T08:29:47.749Z,944.00
2023-03-10T08:31:02.888Z,892.00
2023-03-10T08:31:48.839Z,840.00
2023-03-10T08:32:47.812Z,816.00
2023-03-10T08:33:47.690Z,800.00
2023-03-10T08:34:47.753Z,800.00
2023-03-10T08:35:47.712Z,796.00
2023-03-10T08:36:47.671Z,760.00
2023-03-10T08:37:47.668Z,752.00
2023-03-10T08:38:47.682Z,776.00
2023-03-10T08:39:47.637Z,784.00
2023-03-10T08:40:47.629Z,784.00
2023-03-10T08:41:47.739Z,772.00
2023-03-10T08:42:48.631Z,764.00
2023-03-10T08:43:49.311Z,792.00
2023-03-10T08:44:47.562Z,792.00
2023-03-10T08:45:47.565Z,784.00
2023-03-10T08:46:47.648Z,780.00
2023-03-10T08:47:47.587Z,772.00
2023-03-10T08:48:47.542Z,788.00
2023-03-10T08:49:48.908Z,808.00
2023-03-10T08:50:47.584Z,804.00
2023-03-10T08:51:47.543Z,772.00
2023-03-10T08:52:47.476Z,776.00
2023-03-10T08:53:47.479Z,760.00
2023-03-10T08:54:47.507Z,740.00
2023-03-10T08:55:47.499Z,740.00
2023-03-10T08:56:47.437Z,764.00
2023-03-10T08:57:47.447Z,776.00
2023-03-10T08:58:47.422Z,768.00
2023-03-10T08:59:47.416Z,772.00
2023-03-10T09:00:47.423Z,744.00
2023-03-10T09:01:47.461Z,764.00
2023-03-10T09:02:47.409Z,772.00
2023-03-10T09:03:47.362Z,780.00
2023-03-10T09:04:47.470Z,800.00
2023-03-10T09:05:47.404Z,788.00
2023-03-10T09:06:47.336Z,772.00
2023-03-10T09:07:47.387Z,784.00
2023-03-10T09:08:47.296Z,772.00
2023-03-10T09:09:47.359Z,764.00
2023-03-10T09:10:47.304Z,776.00
2023-03-10T09:11:47.293Z,816.00
2023-03-10T09:12:47.249Z,808.00
2023-03-10T09:13:47.484Z,748.00
2023-03-10T09:14:47.286Z,604.00
2023-03-10T09:15:47.229Z,720.00
2023-03-10T09:16:47.341Z,684.00
2023-03-10T09:17:47.273Z,664.00
2023-03-10T09:18:47.184Z,688.00
2023-03-10T09:19:47.419Z,680.00
2023-03-10T09:20:47.160Z,640.00
2023-03-10T09:21:47.170Z,644.00
2023-03-10T09:22:47.162Z,664.00
2023-03-10T09:23:47.167Z,660.00
2023-03-10T09:24:47.193Z,668.00
2023-03-10T09:25:47.114Z,724.00
2023-03-10T09:26:47.191Z,724.00
2023-03-10T09:27:47.103Z,796.00
2023-03-10T09:28:47.101Z,720.00
2023-03-10T09:30:47.076Z,768.00
2023-03-10T09:31:47.274Z,816.00
2023-03-10T09:32:47.100Z,816.00
2023-03-10T09:33:48.281Z,888.00
2023-03-10T09:34:47.064Z,968.00
2023-03-10T09:35:52.812Z,992.00
2023-03-10T09:36:48.021Z,1032.00
2023-03-10T09:37:46.968Z,1096.00
2023-03-10T09:38:47.025Z,1148.00
2023-03-10T09:39:46.995Z,1176.00
2023-03-10T09:40:46.936Z,1188.00
2023-03-10T09:41:47.001Z,1276.00
2023-03-10T09:42:46.951Z,1352.00
2023-03-10T09:43:46.910Z,1392.00
2023-03-10T09:44:46.905Z,1328.00
2023-03-10T09:45:46.933Z,1284.00
2023-03-10T09:46:46.923Z,1340.00
2023-03-10T09:47:46.907Z,1316.00
2023-03-10T09:48:46.842Z,1256.00
2023-03-10T09:49:46.883Z,1160.00
2023-03-10T09:50:46.851Z,1008.00
2023-03-10T09:51:46.861Z,792.00
2023-03-10T09:52:46.874Z,632.00
2023-03-10T09:53:49.467Z,484.00
2023-03-10T09:54:46.836Z,432.00
2023-03-10T09:55:48.407Z,492.00
2023-03-10T09:56:46.813Z,640.00
2023-03-10T09:57:46.843Z,836.00
2023-03-10T09:58:46.807Z,972.00
2023-03-10T09:59:46.804Z,1024.00
2023-03-10T10:00:46.724Z,1112.00
2023-03-10T10:01:46.759Z,1168.00
2023-03-10T10:02:46.738Z,1208.00
2023-03-10T10:03:53.081Z,1080.00
2023-03-10T10:04:47.732Z,960.00
2023-03-10T10:05:46.655Z,784.00
2023-03-10T10:06:46.688Z,700.00
2023-03-10T10:07:46.660Z,648.00
2023-03-10T10:08:54.656Z,636.00
2023-03-10T10:09:47.822Z,680.00
2023-03-10T10:10:46.779Z,704.00
2023-03-10T10:11:46.641Z,788.00
2023-03-10T10:12:46.591Z,828.00
2023-03-10T10:13:46.592Z,828.00
2023-03-10T10:14:56.806Z,820.00
2023-03-10T10:15:47.614Z,856.00
2023-03-10T10:16:46.563Z,796.00
2023-03-10T10:17:52.981Z,788.00
2023-03-10T10:18:47.509Z,720.00
2023-03-10T10:19:46.537Z,712.00
2023-03-10T10:20:46.543Z,756.00
2023-03-10T10:21:46.489Z,656.00
2023-03-10T10:22:46.465Z,624.00
2023-03-10T10:23:46.479Z,728.00
2023-03-10T10:24:46.476Z,736.00
2023-03-10T10:25:47.765Z,848.00
2023-03-10T10:26:46.433Z,916.00
2023-03-10T10:27:46.540Z,1008.00
2023-03-10T10:28:46.432Z,1024.00
2023-03-10T10:29:46.402Z,1056.00
2023-03-10T10:30:46.450Z,1052.00
2023-03-10T10:31:46.356Z,1060.00
2023-03-10T10:32:46.435Z,1284.00
2023-03-10T10:33:46.371Z,1396.00
2023-03-10T10:34:46.425Z,1500.00
2023-03-10T10:35:46.427Z,1756.00
2023-03-10T10:36:46.338Z,1760.00
2023-03-10T10:37:46.398Z,1596.00
2023-03-10T10:38:46.295Z,1504.00
2023-03-10T10:39:46.325Z,1456.00
2023-03-10T10:40:46.278Z,1468.00
2023-03-10T10:41:54.779Z,1472.00
2023-03-10T10:42:46.252Z,1520.00
2023-03-10T10:43:46.257Z,1544.00
2023-03-10T10:44:46.209Z,1536.00
2023-03-10T10:45:46.292Z,1456.00
2023-03-10T10:46:46.190Z,1440.00
2023-03-10T10:47:46.188Z,1536.00
2023-03-10T10:48:46.314Z,1540.00
2023-03-10T10:49:46.157Z,1468.00
2023-03-10T10:50:46.145Z,1404.00
2023-03-10T10:51:46.169Z,1392.00
2023-03-10T10:52:46.132Z,1392.00
2023-03-10T10:53:46.127Z,1372.00
2023-03-10T10:54:46.100Z,1440.00
2023-03-10T10:55:46.093Z,1392.00
2023-03-10T10:56:46.078Z,1244.00
2023-03-10T10:57:46.156Z,960.00
2023-03-10T10:58:46.087Z,1024.00
2023-03-10T10:59:46.042Z,928.00
2023-03-10T11:00:46.035Z,808.00
2023-03-10T11:01:46.171Z,996.00
2023-03-10T11:02:46.187Z,1004.00
2023-03-10T11:03:46.019Z,1240.00
2023-03-10T11:04:46.073Z,1280.00
2023-03-10T11:05:45.982Z,1328.00
2023-03-10T11:06:46.025Z,1328.00
2023-03-10T11:07:46.029Z,1244.00
2023-03-10T11:08:46.033Z,1244.00
2023-03-10T11:09:45.946Z,1076.00
2023-03-10T11:10:45.965Z,992.00
2023-03-10T11:11:45.906Z,916.00
2023-03-10T11:12:45.918Z,880.00
2023-03-10T11:13:45.908Z,880.00
2023-03-10T11:14:45.875Z,824.00
2023-03-10T11:15:45.915Z,796.00
2023-03-10T11:16:45.855Z,816.00
2023-03-10T11:17:45.925Z,792.00
2023-03-10T11:18:45.833Z,868.00
2023-03-10T11:19:45.830Z,904.00
2023-03-10T11:20:45.816Z,972.00
2023-03-10T11:21:45.814Z,1032.00
2023-03-10T11:22:45.815Z,1028.00
2023-03-10T11:23:45.775Z,896.00
2023-03-10T11:24:45.764Z,820.00
2023-03-10T11:25:45.778Z,736.00
2023-03-10T11:26:45.772Z,692.00
2023-03-10T11:27:45.748Z,680.00
2023-03-10T11:28:45.726Z,588.00
2023-03-10T11:29:45.885Z,524.00
2023-03-10T11:30:45.803Z,396.00
2023-03-10T11:31:45.694Z,372.00
2023-03-10T11:32:45.799Z,364.00
2023-03-10T11:33:45.667Z,352.00
2023-03-10T11:34:45.730Z,348.00
2023-03-10T11:35:45.887Z,328.00
2023-03-10T11:36:55.338Z,328.00
2023-03-10T11:37:46.657Z,328.00
2023-03-10T11:38:45.620Z,324.00
2023-03-10T11:39:45.616Z,512.00
2023-03-10T11:40:45.606Z,388.00
2023-03-10T11:41:45.641Z,336.00
2023-03-10T11:42:45.561Z,340.00
2023-03-10T11:43:45.572Z,340.00
2023-03-10T11:44:45.571Z,364.00
2023-03-10T11:45:45.547Z,392.00
2023-03-10T11:46:45.590Z,460.00
2023-03-10T11:47:45.592Z,548.00
2023-03-10T11:48:45.496Z,416.00
2023-03-10T11:49:45.493Z,392.00
2023-03-10T11:50:45.473Z,460.00
2023-03-10T11:51:45.492Z,504.00
2023-03-10T11:52:45.452Z,1060.00
2023-03-10T11:53:45.472Z,836.00
2023-03-10T11:54:45.439Z,1260.00
2023-03-10T11:55:45.432Z,880.00
2023-03-10T11:56:45.439Z,764.00
2023-03-10T11:57:45.393Z,784.00
2023-03-10T11:58:45.415Z,604.00
2023-03-10T11:59:45.417Z,948.00
2023-03-10T12:00:45.376Z,996.00
2023-03-10T12:01:45.381Z,1048.00
2023-03-10T12:02:45.337Z,1128.00
2023-03-10T12:03:45.415Z,1092.00
2023-03-10T12:04:45.346Z,832.00
2023-03-10T12:05:45.458Z,852.00
2023-03-10T12:06:45.307Z,692.00
2023-03-10T12:07:45.308Z,604.00
2023-03-10T12:08:45.292Z,960.00
2023-03-10T12:09:45.261Z,540.00
2023-03-10T12:10:45.306Z,580.00
2023-03-10T12:11:45.258Z,676.00
2023-03-10T12:12:45.253Z,640.00
2023-03-10T12:13:45.210Z,844.00
2023-03-10T12:14:45.223Z,920.00
2023-03-10T12:15:45.220Z,1224.00
2023-03-10T12:16:45.180Z,892.00
2023-03-10T12:17:45.240Z,632.00
2023-03-10T12:18:45.157Z,732.00
2023-03-10T12:19:45.145Z,864.00
2023-03-10T12:20:45.148Z,980.00
2023-03-10T12:21:45.143Z,856.00
2023-03-10T12:22:45.133Z,616.00
2023-03-10T12:23:45.140Z,484.00
2023-03-10T12:24:45.177Z,880.00
2023-03-10T12:25:45.084Z,612.00
2023-03-10T12:26:45.105Z,892.00
2023-03-10T12:27:45.083Z,580.00
2023-03-10T12:28:45.062Z,816.00
2023-03-10T12:29:45.090Z,884.00
2023-03-10T12:30:45.024Z,1372.00
2023-03-10T12:31:45.131Z,1196.00
2023-03-10T12:32:45.086Z,1552.00
2023-03-10T12:33:45.009Z,1756.00
2023-03-10T12:34:45.054Z,1780.00
2023-03-10T12:35:45.092Z,1464.00
2023-03-10T12:36:44.952Z,1424.00
2023-03-10T12:37:44.939Z,1812.00
2023-03-10T12:38:44.947Z,1668.00
2023-03-10T12:39:44.946Z,1872.00
2023-03-10T12:40:44.934Z,1604.00
2023-03-10T12:41:44.893Z,1740.00
2023-03-10T12:42:44.905Z,1768.00
2023-03-10T12:43:44.875Z,1684.00
2023-03-10T12:44:44.891Z,1720.00
2023-03-10T12:45:44.883Z,1736.00
2023-03-10T12:46:44.864Z,1708.00
2023-03-10T12:47:44.830Z,1784.00
2023-03-10T12:48:44.812Z,1912.00
2023-03-10T12:49:44.853Z,2176.00